EWG20T LMML-EDDL
Flight info
| Callsign | EWG20T |
|---|---|
| Flight time | N/A |
| Altitude | 34000 |
| Route | GZO M622 SOPIR DCT ADEXI DCT ABESI DCT LOKTA/N0458F350 DCT TEDGO DCT HAREM DCT LOHRE/N0456F360 Z850 ARPEG/N0431F240 Z850 ADEMI T854 DOMUX DOMUX1A |
| Aircraft | A320/M-SDE3FGHIRWY/LB1 |
Departure
| Time | 2026-04-29 12:37 |
|---|---|
| Airport | Malta International Airport (LMML) |
Arrival
| Time | N/A |
|---|---|
| Airport | Düsseldorf Airport (EDDL) |
| Time | Latitude | Longitude | Altitude | Speed | Heading |
|---|---|---|---|---|---|
| 2026-04-29 12:10 | 35.85971 | 14.47631 | 269 ft | 0 kts | 87° |
| 2026-04-29 12:30 | 35.85972 | 14.47649 | 276 ft | 6 kts | 87° |
| 2026-04-29 12:30 | 35.85955 | 14.47720 | 277 ft | 10 kts | 130° |
| 2026-04-29 12:30 | 35.85903 | 14.47757 | 272 ft | 7 kts | 222° |
| 2026-04-29 12:30 | 35.85887 | 14.47706 | 272 ft | 6 kts | 245° |
| 2026-04-29 12:31 | 35.85869 | 14.47658 | 275 ft | 9 kts | 248° |
| 2026-04-29 12:31 | 35.85833 | 14.47547 | 272 ft | 14 kts | 246° |
| 2026-04-29 12:31 | 35.85777 | 14.47452 | 272 ft | 16 kts | 233° |
| 2026-04-29 12:31 | 35.85716 | 14.47352 | 272 ft | 14 kts | 233° |
| 2026-04-29 12:32 | 35.85653 | 14.47281 | 272 ft | 12 kts | 201° |
| 2026-04-29 12:32 | 35.85568 | 14.47165 | 274 ft | 24 kts | 233° |
| 2026-04-29 12:32 | 35.85474 | 14.47016 | 283 ft | 19 kts | 234° |
| 2026-04-29 12:32 | 35.85419 | 14.46900 | 292 ft | 13 kts | 256° |
| 2026-04-29 12:33 | 35.85378 | 14.46794 | 296 ft | 17 kts | 233° |
| 2026-04-29 12:33 | 35.85319 | 14.46695 | 301 ft | 12 kts | 234° |
| 2026-04-29 12:33 | 35.85277 | 14.46623 | 304 ft | 13 kts | 234° |
| 2026-04-29 12:33 | 35.85220 | 14.46524 | 308 ft | 13 kts | 234° |
| 2026-04-29 12:34 | 35.85145 | 14.46395 | 308 ft | 27 kts | 235° |
| 2026-04-29 12:34 | 35.85029 | 14.46196 | 309 ft | 29 kts | 234° |
| 2026-04-29 12:34 | 35.84912 | 14.45995 | 308 ft | 22 kts | 233° |
| 2026-04-29 12:34 | 35.84841 | 14.45959 | 308 ft | 5 kts | 179° |
| 2026-04-29 12:35 | 35.84839 | 14.45959 | 308 ft | 0 kts | 177° |
| 2026-04-29 12:35 | 35.84799 | 14.45974 | 308 ft | 10 kts | 154° |
| 2026-04-29 12:35 | 35.84759 | 14.46043 | 308 ft | 10 kts | 81° |
| 2026-04-29 12:36 | 35.84796 | 14.46105 | 308 ft | 4 kts | 55° |
| 2026-04-29 12:36 | 35.84801 | 14.46114 | 308 ft | 0 kts | 55° |
| 2026-04-29 12:36 | 35.84804 | 14.46119 | 308 ft | 5 kts | 55° |
| 2026-04-29 12:36 | 35.84963 | 14.46393 | 308 ft | 76 kts | 54° |
| 2026-04-29 12:37 | 35.85394 | 14.47131 | 282 ft | 136 kts | 54° |
| 2026-04-29 12:37 | 35.86010 | 14.48162 | 630 ft | 152 kts | 57° |
| 2026-04-29 12:37 | 35.86628 | 14.49204 | 1348 ft | 152 kts | 63° |
| 2026-04-29 12:37 | 35.87245 | 14.50305 | 1755 ft | 166 kts | 63° |
| 2026-04-29 12:38 | 35.87935 | 14.51547 | 2041 ft | 184 kts | 62° |
| 2026-04-29 12:38 | 35.88708 | 14.52922 | 2318 ft | 207 kts | 60° |
| 2026-04-29 12:38 | 35.89599 | 14.54481 | 2562 ft | 235 kts | 60° |
| 2026-04-29 12:38 | 35.90583 | 14.56196 | 2943 ft | 256 kts | 59° |
| 2026-04-29 12:39 | 35.91754 | 14.57925 | 3542 ft | 271 kts | 41° |
| 2026-04-29 12:39 | 35.93505 | 14.58861 | 4294 ft | 281 kts | 12° |
| 2026-04-29 12:39 | 35.95478 | 14.58812 | 5044 ft | 290 kts | 347° |
| 2026-04-29 12:39 | 35.97307 | 14.57784 | 5868 ft | 291 kts | 322° |
| 2026-04-29 12:40 | 35.98652 | 14.55943 | 6648 ft | 291 kts | 300° |
| 2026-04-29 12:40 | 35.99414 | 14.53642 | 7420 ft | 290 kts | 280° |
| 2026-04-29 12:40 | 35.99691 | 14.51190 | 8251 ft | 288 kts | 276° |
| 2026-04-29 12:40 | 35.99984 | 14.48743 | 9049 ft | 289 kts | 277° |
| 2026-04-29 12:41 | 36.00307 | 14.46294 | 9855 ft | 289 kts | 277° |
| 2026-04-29 12:41 | 36.00650 | 14.43821 | 10408 ft | 300 kts | 278° |
| 2026-04-29 12:41 | 36.01016 | 14.41185 | 10562 ft | 323 kts | 279° |
| 2026-04-29 12:41 | 36.01657 | 14.38433 | 10694 ft | 347 kts | 294° |
| 2026-04-29 12:42 | 36.03149 | 14.35979 | 10854 ft | 370 kts | 313° |
| 2026-04-29 12:42 | 36.05007 | 14.33721 | 11320 ft | 377 kts | 314° |
| 2026-04-29 12:42 | 36.06903 | 14.31461 | 11945 ft | 380 kts | 314° |
| 2026-04-29 12:42 | 36.08810 | 14.29201 | 12639 ft | 380 kts | 314° |
| 2026-04-29 12:43 | 36.10727 | 14.26929 | 13272 ft | 383 kts | 314° |
| 2026-04-29 12:43 | 36.12646 | 14.24642 | 13924 ft | 384 kts | 313° |
| 2026-04-29 12:43 | 36.14570 | 14.22335 | 14486 ft | 386 kts | 314° |
| 2026-04-29 12:43 | 36.16501 | 14.20006 | 14981 ft | 390 kts | 313° |
| 2026-04-29 12:44 | 36.18451 | 14.17650 | 15513 ft | 393 kts | 313° |
| 2026-04-29 12:44 | 36.20409 | 14.15279 | 16075 ft | 395 kts | 313° |
| 2026-04-29 12:44 | 36.22380 | 14.12899 | 16634 ft | 397 kts | 313° |
| 2026-04-29 12:44 | 36.24360 | 14.10509 | 17182 ft | 399 kts | 313° |
| 2026-04-29 12:45 | 36.26347 | 14.08101 | 17719 ft | 400 kts | 313° |
| 2026-04-29 12:45 | 36.28343 | 14.05679 | 18241 ft | 402 kts | 313° |
| 2026-04-29 12:45 | 36.30347 | 14.03246 | 18689 ft | 404 kts | 313° |
| 2026-04-29 12:45 | 36.32364 | 14.00800 | 19120 ft | 406 kts | 313° |
| 2026-04-29 12:46 | 36.34391 | 13.98348 | 19540 ft | 408 kts | 313° |
| 2026-04-29 12:46 | 36.36429 | 13.95884 | 19955 ft | 410 kts | 313° |
| 2026-04-29 12:46 | 36.38449 | 13.93438 | 20356 ft | 412 kts | 313° |
| 2026-04-29 12:46 | 36.40499 | 13.90949 | 20745 ft | 414 kts | 313° |
| 2026-04-29 12:47 | 36.42558 | 13.88443 | 21139 ft | 416 kts | 313° |
| 2026-04-29 12:47 | 36.44629 | 13.85916 | 21465 ft | 419 kts | 313° |
| 2026-04-29 12:47 | 36.46713 | 13.83372 | 21796 ft | 422 kts | 313° |
| 2026-04-29 12:47 | 36.48810 | 13.80814 | 22131 ft | 424 kts | 313° |
| 2026-04-29 12:48 | 36.51053 | 13.78410 | 22460 ft | 429 kts | 321° |
| 2026-04-29 12:48 | 36.53481 | 13.76238 | 22799 ft | 431 kts | 321° |
| 2026-04-29 12:48 | 36.55917 | 13.74060 | 23130 ft | 432 kts | 321° |
| 2026-04-29 12:48 | 36.58366 | 13.71866 | 23451 ft | 434 kts | 321° |
| 2026-04-29 12:49 | 36.60818 | 13.69663 | 23747 ft | 436 kts | 321° |
| 2026-04-29 12:49 | 36.63281 | 13.67445 | 24015 ft | 437 kts | 321° |
| 2026-04-29 12:49 | 36.65748 | 13.65221 | 24288 ft | 438 kts | 321° |
| 2026-04-29 12:49 | 36.68219 | 13.62993 | 24552 ft | 439 kts | 321° |
| 2026-04-29 12:50 | 36.70701 | 13.60753 | 24785 ft | 441 kts | 321° |
| 2026-04-29 12:50 | 36.73159 | 13.58535 | 25017 ft | 443 kts | 321° |
| 2026-04-29 12:50 | 36.75657 | 13.56282 | 25262 ft | 444 kts | 321° |
| 2026-04-29 12:50 | 36.78162 | 13.54021 | 25495 ft | 445 kts | 321° |
| 2026-04-29 12:51 | 36.80672 | 13.51754 | 25721 ft | 446 kts | 321° |
| 2026-04-29 12:51 | 36.83184 | 13.49481 | 25942 ft | 447 kts | 321° |
| 2026-04-29 12:51 | 36.85703 | 13.47196 | 26129 ft | 448 kts | 321° |
| 2026-04-29 12:51 | 36.88227 | 13.44902 | 26338 ft | 449 kts | 321° |
| 2026-04-29 12:52 | 36.90758 | 13.42604 | 26535 ft | 450 kts | 321° |
| 2026-04-29 12:52 | 36.93290 | 13.40301 | 26786 ft | 449 kts | 321° |
| 2026-04-29 12:52 | 36.95813 | 13.38004 | 27086 ft | 448 kts | 321° |
| 2026-04-29 12:52 | 36.98331 | 13.35708 | 27310 ft | 449 kts | 321° |
| 2026-04-29 12:53 | 37.00855 | 13.33410 | 27548 ft | 449 kts | 321° |
| 2026-04-29 12:53 | 37.03374 | 13.31113 | 27818 ft | 448 kts | 321° |
| 2026-04-29 12:53 | 37.05888 | 13.28818 | 28099 ft | 447 kts | 321° |
| 2026-04-29 12:53 | 37.08397 | 13.26528 | 28399 ft | 446 kts | 321° |
| 2026-04-29 12:54 | 37.10896 | 13.24247 | 28692 ft | 444 kts | 320° |
| 2026-04-29 12:54 | 37.13392 | 13.21968 | 28986 ft | 443 kts | 320° |
| 2026-04-29 12:54 | 37.15880 | 13.19697 | 29275 ft | 442 kts | 320° |
| 2026-04-29 12:54 | 37.18362 | 13.17430 | 29579 ft | 441 kts | 320° |
| 2026-04-29 12:55 | 37.20835 | 13.15169 | 29882 ft | 439 kts | 320° |
| 2026-04-29 12:55 | 37.23302 | 13.12905 | 30161 ft | 439 kts | 321° |
| 2026-04-29 12:55 | 37.25770 | 13.10632 | 30321 ft | 441 kts | 320° |
| 2026-04-29 12:55 | 37.28241 | 13.08352 | 30529 ft | 441 kts | 320° |
| 2026-04-29 12:56 | 37.30712 | 13.06072 | 30763 ft | 440 kts | 320° |
| 2026-04-29 12:56 | 37.33214 | 13.03857 | 31005 ft | 441 kts | 325° |
| 2026-04-29 12:56 | 37.35954 | 13.02088 | 31246 ft | 445 kts | 334° |
| 2026-04-29 12:56 | 37.38896 | 13.00832 | 31484 ft | 447 kts | 339° |
| 2026-04-29 12:57 | 37.41868 | 12.99674 | 31715 ft | 447 kts | 338° |
| 2026-04-29 12:57 | 37.44829 | 12.98508 | 31953 ft | 446 kts | 338° |
| 2026-04-29 12:57 | 37.47786 | 12.97339 | 32204 ft | 445 kts | 338° |
| 2026-04-29 12:57 | 37.50743 | 12.96168 | 32387 ft | 446 kts | 338° |
| 2026-04-29 12:58 | 37.53707 | 12.94997 | 32576 ft | 447 kts | 338° |
| 2026-04-29 12:58 | 37.56673 | 12.93829 | 32788 ft | 447 kts | 338° |
| 2026-04-29 12:58 | 37.59639 | 12.92660 | 33006 ft | 446 kts | 338° |
| 2026-04-29 12:58 | 37.62601 | 12.91488 | 33230 ft | 446 kts | 338° |
| 2026-04-29 12:59 | 37.65519 | 12.90332 | 33459 ft | 446 kts | 338° |
| 2026-04-29 12:59 | 37.68514 | 12.89146 | 33690 ft | 445 kts | 338° |
| 2026-04-29 12:59 | 37.71427 | 12.87991 | 33920 ft | 445 kts | 338° |
| 2026-04-29 12:59 | 37.74383 | 12.86821 | 34039 ft | 446 kts | 338° |
| 2026-04-29 13:00 | 37.77352 | 12.85644 | 34053 ft | 448 kts | 338° |
| 2026-04-29 13:00 | 37.83301 | 12.83278 | 34054 ft | 448 kts | 338° |
| 2026-04-29 13:01 | 37.89254 | 12.80908 | 34046 ft | 449 kts | 338° |
| 2026-04-29 13:01 | 37.95210 | 12.78537 | 34050 ft | 448 kts | 338° |
| 2026-04-29 13:02 | 38.01167 | 12.76162 | 34041 ft | 449 kts | 338° |
| 2026-04-29 13:02 | 38.07122 | 12.73776 | 34035 ft | 449 kts | 338° |
| 2026-04-29 13:03 | 38.13074 | 12.71386 | 34033 ft | 449 kts | 338° |
| 2026-04-29 13:03 | 38.19028 | 12.68994 | 34033 ft | 449 kts | 338° |
| 2026-04-29 13:04 | 38.24982 | 12.66599 | 34040 ft | 449 kts | 338° |
| 2026-04-29 13:04 | 38.30943 | 12.64197 | 34035 ft | 449 kts | 338° |
| 2026-04-29 13:05 | 38.36912 | 12.61794 | 34035 ft | 450 kts | 338° |
| 2026-04-29 13:05 | 38.42884 | 12.59387 | 34033 ft | 450 kts | 338° |
| 2026-04-29 13:06 | 38.48856 | 12.56966 | 34047 ft | 451 kts | 339° |
| 2026-04-29 13:06 | 38.54830 | 12.54532 | 34047 ft | 451 kts | 339° |
| 2026-04-29 13:07 | 38.60768 | 12.52120 | 34046 ft | 451 kts | 339° |
| 2026-04-29 13:07 | 38.66743 | 12.49692 | 34050 ft | 451 kts | 339° |
| 2026-04-29 13:08 | 38.72718 | 12.47256 | 34057 ft | 451 kts | 339° |
| 2026-04-29 13:08 | 38.78692 | 12.44812 | 34050 ft | 451 kts | 339° |
| 2026-04-29 13:09 | 38.84669 | 12.42373 | 34049 ft | 451 kts | 339° |
| 2026-04-29 13:09 | 38.90642 | 12.39920 | 34030 ft | 451 kts | 339° |
| 2026-04-29 13:10 | 38.96620 | 12.37465 | 34033 ft | 451 kts | 339° |
| 2026-04-29 13:10 | 39.02606 | 12.35000 | 34031 ft | 452 kts | 339° |
| 2026-04-29 13:11 | 39.08596 | 12.32527 | 34031 ft | 452 kts | 339° |
| 2026-04-29 13:11 | 39.13577 | 12.30474 | 34034 ft | 452 kts | 339° |
| 2026-04-29 13:12 | 39.19572 | 12.27993 | 34048 ft | 452 kts | 339° |
| 2026-04-29 13:12 | 39.25567 | 12.25512 | 34050 ft | 452 kts | 339° |
| 2026-04-29 13:13 | 39.31556 | 12.23029 | 34049 ft | 452 kts | 339° |
| 2026-04-29 13:13 | 39.37541 | 12.20539 | 34046 ft | 452 kts | 339° |
| 2026-04-29 13:14 | 39.43524 | 12.18047 | 34058 ft | 451 kts | 339° |
| 2026-04-29 13:14 | 39.49497 | 12.15562 | 34057 ft | 451 kts | 339° |
| 2026-04-29 13:15 | 39.55465 | 12.13066 | 34050 ft | 451 kts | 339° |
| 2026-04-29 13:15 | 39.61434 | 12.10562 | 34050 ft | 451 kts | 339° |
| 2026-04-29 13:16 | 39.67355 | 12.08063 | 34054 ft | 451 kts | 339° |
| 2026-04-29 13:16 | 39.73324 | 12.05563 | 34048 ft | 450 kts | 339° |
| 2026-04-29 13:17 | 39.79285 | 12.03059 | 34040 ft | 451 kts | 339° |
| 2026-04-29 13:17 | 39.85254 | 12.00543 | 34036 ft | 451 kts | 340° |
| 2026-04-29 13:18 | 39.91228 | 11.98014 | 34036 ft | 452 kts | 339° |
| 2026-04-29 13:18 | 39.97209 | 11.95486 | 34043 ft | 452 kts | 339° |
| 2026-04-29 13:19 | 40.03189 | 11.92953 | 34046 ft | 452 kts | 339° |
| 2026-04-29 13:19 | 40.09169 | 11.90404 | 34041 ft | 452 kts | 339° |
| 2026-04-29 13:20 | 40.15153 | 11.87854 | 34036 ft | 452 kts | 339° |
| 2026-04-29 13:20 | 40.21134 | 11.85309 | 34036 ft | 452 kts | 339° |
| 2026-04-29 13:21 | 40.27114 | 11.82759 | 34036 ft | 452 kts | 339° |
| 2026-04-29 13:21 | 40.33092 | 11.80197 | 34047 ft | 452 kts | 339° |
| 2026-04-29 13:22 | 40.39064 | 11.77634 | 34049 ft | 452 kts | 339° |
| 2026-04-29 13:22 | 40.45033 | 11.75067 | 34043 ft | 451 kts | 339° |
| 2026-04-29 13:23 | 40.50963 | 11.72513 | 34037 ft | 451 kts | 339° |
| 2026-04-29 13:23 | 40.56928 | 11.69939 | 34048 ft | 451 kts | 339° |
| 2026-04-29 13:24 | 40.62891 | 11.67373 | 34052 ft | 451 kts | 339° |
| 2026-04-29 13:24 | 40.68852 | 11.64793 | 34043 ft | 451 kts | 339° |
| 2026-04-29 13:25 | 40.74818 | 11.62202 | 34046 ft | 451 kts | 339° |
| 2026-04-29 13:25 | 40.83766 | 11.58301 | 34059 ft | 451 kts | 339° |
| 2026-04-29 13:26 | 40.89727 | 11.55703 | 34054 ft | 451 kts | 339° |
| 2026-04-29 13:26 | 40.95690 | 11.53110 | 34057 ft | 451 kts | 339° |
| 2026-04-29 13:27 | 41.01654 | 11.50502 | 34057 ft | 452 kts | 339° |
| 2026-04-29 13:27 | 41.07696 | 11.48040 | 34280 ft | 454 kts | 338° |
| 2026-04-29 13:28 | 41.10649 | 11.46578 | 34444 ft | 453 kts | 338° |
| 2026-04-29 13:28 | 41.13672 | 11.45380 | 34528 ft | 455 kts | 343° |
| 2026-04-29 13:28 | 41.16708 | 11.44512 | 34567 ft | 425 kts | 345° |
| 2026-04-29 13:28 | 41.19533 | 11.43738 | 32875 ft | 386 kts | 346° |
| 2026-04-29 13:29 | 41.22108 | 11.42984 | 24241 ft | 481 kts | 343° |
| 2026-04-29 13:29 | 41.25119 | 11.40998 | 16387 ft | 403 kts | 308° |
| 2026-04-29 13:29 | 41.26740 | 11.39774 | 3339 ft | 370 kts | 12° |
| 2026-04-29 13:29 | 41.27435 | 11.40193 | 9 ft | 6 kts | 32° |